createdAt,value
2017-01-27T00:00:05.788Z,1014.64
2017-01-27T00:00:31.975Z,1014.66
2017-01-27T00:00:58.143Z,1014.65
2017-01-27T00:01:24.303Z,1014.6
2017-01-27T00:01:50.420Z,1014.63
2017-01-27T00:02:16.618Z,1014.6
2017-01-27T00:02:42.749Z,1014.62
2017-01-27T00:03:08.948Z,1014.61
2017-01-27T00:03:35.084Z,1014.6
2017-01-27T00:04:01.234Z,1014.61
2017-01-27T00:04:27.357Z,1014.63
2017-01-27T00:04:53.490Z,1014.63
2017-01-27T00:05:19.605Z,1014.63
2017-01-27T00:05:45.738Z,1014.62
2017-01-27T00:06:11.868Z,1014.62
2017-01-27T00:06:38.018Z,1014.6
2017-01-27T00:07:04.200Z,1014.62
2017-01-27T00:07:30.363Z,1014.59
2017-01-27T00:07:56.485Z,1014.61
2017-01-27T00:08:22.569Z,1014.59
2017-01-27T00:08:48.713Z,1014.59
2017-01-27T00:09:14.844Z,1014.63
2017-01-27T00:09:40.927Z,1014.58
2017-01-27T00:10:07.315Z,1014.62
2017-01-27T00:10:33.466Z,1014.6
2017-01-27T00:10:59.639Z,1014.6
2017-01-27T00:11:25.829Z,1014.55
2017-01-27T00:11:52.088Z,1014.55
2017-01-27T00:12:18.216Z,1014.53
2017-01-27T00:12:44.331Z,1014.52
2017-01-27T00:13:10.520Z,1014.5
2017-01-27T00:13:36.671Z,1014.52
2017-01-27T00:14:02.838Z,1014.52
2017-01-27T00:14:28.964Z,1014.51
2017-01-27T00:14:55.086Z,1014.51
2017-01-27T00:15:21.283Z,1014.51
2017-01-27T00:15:47.455Z,1014.5
2017-01-27T00:16:13.610Z,1014.47
2017-01-27T00:16:39.793Z,1014.48
2017-01-27T00:17:05.906Z,1014.44
2017-01-27T00:17:32.059Z,1014.44
2017-01-27T00:17:58.241Z,1014.43
2017-01-27T00:18:24.333Z,1014.44
2017-01-27T00:18:50.622Z,1014.42
2017-01-27T00:19:16.749Z,1014.41
2017-01-27T00:19:42.852Z,1014.39
2017-01-27T00:20:08.989Z,1014.4
2017-01-27T00:20:35.079Z,1014.37
2017-01-27T00:21:01.202Z,1014.37
2017-01-27T00:21:27.329Z,1014.35
2017-01-27T00:21:53.513Z,1014.39
2017-01-27T00:22:19.673Z,1014.39
2017-01-27T00:22:45.842Z,1014.35
2017-01-27T00:23:11.988Z,1014.38
2017-01-27T00:23:38.142Z,1014.36
2017-01-27T00:24:04.336Z,1014.37
2017-01-27T00:24:30.454Z,1014.37
2017-01-27T00:24:56.629Z,1014.32
2017-01-27T00:25:22.736Z,1014.31
2017-01-27T00:25:48.872Z,1014.29
2017-01-27T00:26:15.030Z,1014.28
2017-01-27T00:26:41.141Z,1014.28
2017-01-27T00:27:07.291Z,1014.26
2017-01-27T00:27:33.393Z,1014.25
2017-01-27T00:27:59.552Z,1014.23
2017-01-27T00:28:25.667Z,1014.28
2017-01-27T00:28:51.832Z,1014.22
2017-01-27T00:29:17.962Z,1014.21
2017-01-27T00:29:44.131Z,1014.23
2017-01-27T00:30:10.263Z,1014.22
2017-01-27T00:30:36.415Z,1014.18
2017-01-27T00:31:02.575Z,1014.15
2017-01-27T00:31:28.706Z,1014.18
2017-01-27T00:31:54.825Z,1014.18
2017-01-27T00:32:20.948Z,1014.1
2017-01-27T00:32:47.085Z,1014.18
2017-01-27T00:33:13.166Z,1014.12
2017-01-27T00:33:39.358Z,1014.14
2017-01-27T00:34:05.487Z,1014.14
2017-01-27T00:34:31.659Z,1014.1
2017-01-27T00:34:57.798Z,1014.1
2017-01-27T00:35:23.998Z,1014.06
2017-01-27T00:35:50.177Z,1014.14
2017-01-27T00:36:16.283Z,1014.09
2017-01-27T00:36:42.417Z,1014.09
2017-01-27T00:37:08.563Z,1014.08
2017-01-27T00:37:34.717Z,1014.11
2017-01-27T00:38:00.803Z,1014.12
2017-01-27T00:38:26.948Z,1014.14
2017-01-27T00:38:53.139Z,1014.12
2017-01-27T00:39:19.228Z,1014.12
2017-01-27T00:39:45.326Z,1014.16
2017-01-27T00:40:11.514Z,1014.07
2017-01-27T00:40:37.638Z,1014.04
2017-01-27T00:41:03.747Z,1014.04
2017-01-27T00:41:29.856Z,1014.02
2017-01-27T00:41:56.009Z,1014.03
2017-01-27T00:42:22.147Z,1014.05
2017-01-27T00:42:48.296Z,1014.04
2017-01-27T00:43:14.408Z,1014.01
2017-01-27T00:43:40.517Z,1014.01
2017-01-27T00:44:06.662Z,1014
2017-01-27T00:44:32.753Z,1013.99
2017-01-27T00:44:58.886Z,1014
2017-01-27T00:45:25.035Z,1013.98
2017-01-27T00:45:51.202Z,1014.02
2017-01-27T00:46:17.331Z,1014
2017-01-27T00:46:43.444Z,1013.95
2017-01-27T00:47:09.559Z,1013.96
2017-01-27T00:47:35.681Z,1013.97
2017-01-27T00:48:01.798Z,1013.98
2017-01-27T00:48:27.950Z,1013.93
2017-01-27T00:48:54.048Z,1013.93
2017-01-27T00:49:20.188Z,1013.87
2017-01-27T00:49:46.326Z,1013.89
2017-01-27T00:50:12.509Z,1013.9
2017-01-27T00:50:38.627Z,1013.88
2017-01-27T00:51:04.776Z,1013.92
2017-01-27T00:51:30.977Z,1013.92
2017-01-27T00:51:57.120Z,1013.89
2017-01-27T00:52:23.209Z,1013.9
2017-01-27T00:52:49.378Z,1013.89
2017-01-27T00:53:15.496Z,1013.88
2017-01-27T00:53:41.589Z,1013.88
2017-01-27T00:54:07.789Z,1013.86
2017-01-27T00:54:33.881Z,1013.91
2017-01-27T00:55:00.010Z,1013.86
2017-01-27T00:55:26.113Z,1013.86
2017-01-27T00:55:52.262Z,1013.89
2017-01-27T00:56:18.361Z,1013.84
2017-01-27T00:57:40.456Z,1013.86
2017-01-27T00:58:06.638Z,1013.89
2017-01-27T00:58:32.774Z,1013.86
2017-01-27T00:58:58.913Z,1013.86
2017-01-27T00:59:25.008Z,1013.84
2017-01-27T00:59:51.161Z,1013.83
2017-01-27T01:00:17.277Z,1013.82
2017-01-27T01:00:43.422Z,1013.82
2017-01-27T01:01:09.555Z,1013.79
2017-01-27T01:01:35.679Z,1013.77
2017-01-27T01:02:01.796Z,1013.75
2017-01-27T01:02:27.928Z,1013.77
2017-01-27T01:02:54.107Z,1013.78
2017-01-27T01:03:20.199Z,1013.78
2017-01-27T01:03:46.362Z,1013.79
2017-01-27T01:04:12.496Z,1013.78
2017-01-27T01:04:38.645Z,1013.8
2017-01-27T01:05:04.767Z,1013.8
2017-01-27T01:05:30.860Z,1013.81
2017-01-27T01:05:56.990Z,1013.83
2017-01-27T01:06:23.089Z,1013.81
2017-01-27T01:06:49.246Z,1013.8
2017-01-27T01:07:15.380Z,1013.83
2017-01-27T01:07:41.501Z,1013.8
2017-01-27T01:08:07.647Z,1013.79
2017-01-27T01:08:33.804Z,1013.8
2017-01-27T01:08:59.996Z,1013.76
2017-01-27T01:09:26.124Z,1013.74
2017-01-27T01:09:52.309Z,1013.76
2017-01-27T01:10:18.486Z,1013.76
2017-01-27T01:10:44.647Z,1013.71
2017-01-27T01:11:10.801Z,1013.72
2017-01-27T01:11:36.967Z,1013.72
2017-01-27T01:12:03.120Z,1013.68
2017-01-27T01:12:29.289Z,1013.73
2017-01-27T01:12:55.448Z,1013.71
2017-01-27T01:13:21.572Z,1013.7
2017-01-27T01:13:47.754Z,1013.69
2017-01-27T01:14:13.904Z,1013.68
2017-01-27T01:14:40.069Z,1013.63
2017-01-27T01:15:06.213Z,1013.62
2017-01-27T01:15:32.377Z,1013.59
2017-01-27T01:15:58.571Z,1013.62
2017-01-27T01:16:24.698Z,1013.59
2017-01-27T01:16:50.852Z,1013.57
2017-01-27T01:17:17.053Z,1013.53
2017-01-27T01:17:43.165Z,1013.54
2017-01-27T01:18:09.316Z,1013.51
2017-01-27T01:18:35.479Z,1013.45
2017-01-27T01:19:01.606Z,1013.49
2017-01-27T01:19:27.791Z,1013.44
2017-01-27T01:19:54.008Z,1013.45
2017-01-27T01:20:20.165Z,1013.43
2017-01-27T01:20:46.306Z,1013.4
2017-01-27T01:21:12.531Z,1013.39
2017-01-27T01:21:38.717Z,1013.39
2017-01-27T01:22:04.890Z,1013.38
2017-01-27T01:22:31.067Z,1013.37
2017-01-27T01:22:57.230Z,1013.33
2017-01-27T01:23:23.448Z,1013.3
2017-01-27T01:23:49.588Z,1013.31
2017-01-27T01:24:15.733Z,1013.28
2017-01-27T01:24:41.891Z,1013.27
2017-01-27T01:25:07.991Z,1013.3
2017-01-27T01:25:34.094Z,1013.31
2017-01-27T01:26:00.262Z,1013.36
2017-01-27T01:26:26.392Z,1013.36
2017-01-27T01:26:52.590Z,1013.37
2017-01-27T01:27:18.738Z,1013.33
2017-01-27T01:27:44.871Z,1013.34
2017-01-27T01:28:11.075Z,1013.35
2017-01-27T01:28:37.220Z,1013.36
2017-01-27T01:29:03.316Z,1013.34
2017-01-27T01:29:29.412Z,1013.34
2017-01-27T01:29:55.570Z,1013.36
2017-01-27T01:30:21.713Z,1013.4
2017-01-27T01:30:47.837Z,1013.41
2017-01-27T01:31:14.034Z,1013.44
2017-01-27T01:31:40.205Z,1013.44
2017-01-27T01:32:06.330Z,1013.45
2017-01-27T01:32:32.421Z,1013.47
2017-01-27T01:32:58.578Z,1013.49
2017-01-27T01:33:24.685Z,1013.5
2017-01-27T01:33:50.770Z,1013.47
2017-01-27T01:34:16.894Z,1013.42
2017-01-27T01:34:43.023Z,1013.39
2017-01-27T01:35:09.193Z,1013.39
2017-01-27T01:35:35.318Z,1013.37
2017-01-27T01:36:01.487Z,1013.31
2017-01-27T01:36:27.635Z,1013.24
2017-01-27T01:36:53.746Z,1013.23
2017-01-27T01:37:19.883Z,1013.24
2017-01-27T01:37:45.977Z,1013.22
2017-01-27T01:38:12.071Z,1013.25
2017-01-27T01:38:38.259Z,1013.29
2017-01-27T01:39:04.359Z,1013.29
2017-01-27T01:39:30.474Z,1013.28
2017-01-27T01:39:56.604Z,1013.28
2017-01-27T01:40:22.757Z,1013.26
2017-01-27T01:40:48.874Z,1013.32
2017-01-27T01:41:15.054Z,1013.35
2017-01-27T01:41:41.159Z,1013.35
2017-01-27T01:42:07.307Z,1013.36
2017-01-27T01:42:33.402Z,1013.37
2017-01-27T01:42:59.507Z,1013.42
2017-01-27T01:43:25.636Z,1013.4
2017-01-27T01:43:51.864Z,1013.41
2017-01-27T01:44:17.975Z,1013.37
2017-01-27T01:44:44.096Z,1013.44
2017-01-27T01:45:10.258Z,1013.42
2017-01-27T01:45:36.378Z,1013.45
2017-01-27T01:46:02.557Z,1013.49
2017-01-27T01:46:28.687Z,1013.51
2017-01-27T01:46:54.861Z,1013.46
2017-01-27T01:47:20.967Z,1013.44
2017-01-27T01:47:47.088Z,1013.42
2017-01-27T01:48:13.227Z,1013.44
2017-01-27T01:48:39.344Z,1013.42
2017-01-27T01:49:05.532Z,1013.38
2017-01-27T01:49:31.675Z,1013.4
2017-01-27T01:49:57.815Z,1013.4
2017-01-27T01:50:23.955Z,1013.33
2017-01-27T01:50:50.107Z,1013.35
2017-01-27T01:51:16.236Z,1013.34
2017-01-27T01:51:42.440Z,1013.31
2017-01-27T01:52:08.573Z,1013.31
2017-01-27T01:52:34.708Z,1013.31
2017-01-27T01:53:00.865Z,1013.27
2017-01-27T01:53:26.978Z,1013.26
2017-01-27T01:53:53.219Z,1013.27
2017-01-27T01:54:19.411Z,1013.25
2017-01-27T01:54:45.600Z,1013.27
2017-01-27T01:55:11.755Z,1013.28
2017-01-27T01:55:37.911Z,1013.24
2017-01-27T01:56:04.107Z,1013.25
2017-01-27T01:56:30.263Z,1013.26
2017-01-27T01:56:56.458Z,1013.24
2017-01-27T01:57:22.588Z,1013.24
2017-01-27T01:57:48.812Z,1013.17
2017-01-27T01:58:14.970Z,1013.16
2017-01-27T01:58:41.153Z,1013.13
2017-01-27T01:59:07.344Z,1013.06
2017-01-27T01:59:33.512Z,1013.06
2017-01-27T01:59:59.685Z,1013.05
2017-01-27T02:00:25.897Z,1013.09
2017-01-27T02:00:52.134Z,1013.12
2017-01-27T02:01:18.298Z,1013.04
2017-01-27T02:01:44.412Z,1013.09
2017-01-27T02:02:10.533Z,1013.06
2017-01-27T02:02:36.704Z,1013.03
2017-01-27T02:03:02.825Z,1013.01
2017-01-27T02:03:28.953Z,1012.99
2017-01-27T02:03:55.109Z,1013.01
2017-01-27T02:04:21.250Z,1012.98
2017-01-27T02:04:47.441Z,1013.01
2017-01-27T02:05:13.666Z,1013
2017-01-27T02:05:39.843Z,1012.99
2017-01-27T02:06:05.970Z,1012.98
2017-01-27T02:06:32.060Z,1013.01
2017-01-27T02:06:58.261Z,1012.99
2017-01-27T02:07:24.413Z,1013.05
2017-01-27T02:07:50.593Z,1013.06
2017-01-27T02:08:16.757Z,1013.06
2017-01-27T02:08:42.924Z,1013.05
2017-01-27T02:09:09.044Z,1013.05
2017-01-27T02:09:35.217Z,1013.05
2017-01-27T02:10:01.435Z,1013.08
2017-01-27T02:10:27.597Z,1013.09
2017-01-27T02:10:53.782Z,1013.07
2017-01-27T02:11:19.884Z,1013.12
2017-01-27T02:11:46.058Z,1013.09
2017-01-27T02:12:12.200Z,1013.09
2017-01-27T02:12:38.402Z,1013.13
2017-01-27T02:13:04.584Z,1013.09
2017-01-27T02:13:30.784Z,1013.08
2017-01-27T02:13:56.972Z,1013.09
2017-01-27T02:14:23.140Z,1013.08
2017-01-27T02:14:49.349Z,1013.06
2017-01-27T02:15:15.532Z,1013.09
2017-01-27T02:15:41.694Z,1013.02
2017-01-27T02:16:07.867Z,1013.07
2017-01-27T02:16:34.033Z,1013.04
2017-01-27T02:17:00.144Z,1013.03
2017-01-27T02:17:26.277Z,1013.04
2017-01-27T02:17:52.409Z,1013.01
2017-01-27T02:18:18.562Z,1013.02
2017-01-27T02:18:44.754Z,1013.02
2017-01-27T02:19:10.883Z,1012.96
2017-01-27T02:19:37.080Z,1012.97
2017-01-27T02:20:03.330Z,1013.04
2017-01-27T02:20:29.478Z,1013.04
2017-01-27T02:20:55.648Z,1013.01
2017-01-27T02:21:21.788Z,1013
2017-01-27T02:21:47.934Z,1012.98
2017-01-27T02:22:14.087Z,1012.98
2017-01-27T02:22:40.286Z,1013
2017-01-27T02:23:06.469Z,1013.02
2017-01-27T02:23:32.614Z,1013
2017-01-27T02:23:58.768Z,1013
2017-01-27T02:24:24.917Z,1012.99
2017-01-27T02:24:51.036Z,1013
2017-01-27T02:25:17.156Z,1013.01
2017-01-27T02:25:43.286Z,1013.06
2017-01-27T02:26:09.429Z,1013.03
2017-01-27T02:26:35.610Z,1013.01
2017-01-27T02:27:01.743Z,1012.98
2017-01-27T02:27:27.908Z,1012.97
2017-01-27T02:27:54.046Z,1012.97
2017-01-27T02:28:20.253Z,1012.97
2017-01-27T02:28:46.379Z,1012.95
2017-01-27T02:29:12.544Z,1012.97
2017-01-27T02:29:38.635Z,1012.96
2017-01-27T02:30:04.777Z,1012.97
2017-01-27T02:30:30.974Z,1012.93
2017-01-27T02:30:57.169Z,1012.94
2017-01-27T02:31:23.323Z,1012.93
2017-01-27T02:31:49.473Z,1012.97
2017-01-27T02:32:15.586Z,1012.93
2017-01-27T02:32:41.698Z,1012.9
2017-01-27T02:33:07.866Z,1012.93
2017-01-27T02:33:34.023Z,1012.9
2017-01-27T02:34:00.170Z,1012.87
2017-01-27T02:34:26.313Z,1012.93
2017-01-27T02:34:52.410Z,1012.9
2017-01-27T02:35:18.547Z,1012.88
2017-01-27T02:35:44.639Z,1012.86
2017-01-27T02:36:10.782Z,1012.88
2017-01-27T02:36:36.890Z,1012.87
2017-01-27T02:37:03.045Z,1012.86
2017-01-27T02:37:29.187Z,1012.89
2017-01-27T02:37:55.344Z,1012.89
2017-01-27T02:38:21.532Z,1012.92
2017-01-27T02:38:47.663Z,1012.93
2017-01-27T02:39:13.883Z,1012.92
2017-01-27T02:39:40.000Z,1012.92
2017-01-27T02:40:06.186Z,1012.94
2017-01-27T02:40:32.312Z,1012.9
2017-01-27T02:40:58.455Z,1012.93
2017-01-27T02:41:24.648Z,1012.85
2017-01-27T02:41:50.802Z,1012.85
2017-01-27T02:42:16.924Z,1012.8
2017-01-27T02:42:43.104Z,1012.83
2017-01-27T02:43:09.294Z,1012.84
2017-01-27T02:43:35.378Z,1012.85
2017-01-27T02:44:01.506Z,1012.84
2017-01-27T02:44:27.675Z,1012.87
2017-01-27T02:44:53.792Z,1012.85
2017-01-27T02:45:19.915Z,1012.86
2017-01-27T02:45:46.060Z,1012.82
2017-01-27T02:46:12.198Z,1012.82
2017-01-27T02:46:38.325Z,1012.81
2017-01-27T02:47:04.454Z,1012.78
2017-01-27T02:47:30.571Z,1012.82
2017-01-27T02:47:56.738Z,1012.88
2017-01-27T02:48:22.903Z,1012.86
2017-01-27T02:48:48.976Z,1012.86
2017-01-27T02:49:15.130Z,1012.83
2017-01-27T02:49:41.224Z,1012.83
2017-01-27T02:50:07.388Z,1012.81
2017-01-27T02:50:33.523Z,1012.82
2017-01-27T02:50:59.652Z,1012.82
2017-01-27T02:51:25.835Z,1012.81
2017-01-27T02:51:51.982Z,1012.82
2017-01-27T02:52:18.100Z,1012.8
2017-01-27T02:52:44.235Z,1012.77
2017-01-27T02:53:10.385Z,1012.8
2017-01-27T02:53:36.504Z,1012.8
2017-01-27T02:54:02.641Z,1012.74
2017-01-27T02:54:28.744Z,1012.7
2017-01-27T02:54:54.856Z,1012.68
2017-01-27T02:55:21.013Z,1012.7
2017-01-27T02:55:47.109Z,1012.68
2017-01-27T02:56:13.236Z,1012.71
2017-01-27T02:56:39.358Z,1012.7
2017-01-27T02:57:05.500Z,1012.77
2017-01-27T02:57:31.694Z,1012.77
2017-01-27T02:57:57.847Z,1012.77
2017-01-27T02:58:23.986Z,1012.81
2017-01-27T02:58:50.151Z,1012.79
2017-01-27T02:59:16.330Z,1012.8
2017-01-27T02:59:42.500Z,1012.81
2017-01-27T03:00:08.625Z,1012.88
2017-01-27T03:00:34.790Z,1012.83
2017-01-27T03:01:00.975Z,1012.88
2017-01-27T03:01:27.092Z,1012.88
2017-01-27T03:01:53.219Z,1012.9
2017-01-27T03:02:19.370Z,1012.86
2017-01-27T03:02:45.524Z,1012.85
2017-01-27T03:03:11.684Z,1012.8
2017-01-27T03:03:37.847Z,1012.8
2017-01-27T03:04:04.044Z,1012.85
2017-01-27T03:04:30.153Z,1012.85
2017-01-27T03:04:56.297Z,1012.81
2017-01-27T03:05:22.434Z,1012.8
2017-01-27T03:05:48.584Z,1012.78
2017-01-27T03:06:14.754Z,1012.77
2017-01-27T03:06:40.946Z,1012.79
2017-01-27T03:07:07.089Z,1012.81
2017-01-27T03:07:33.236Z,1012.79
2017-01-27T03:07:59.343Z,1012.79
2017-01-27T03:08:25.461Z,1012.8
2017-01-27T03:08:51.573Z,1012.77
2017-01-27T03:09:17.765Z,1012.74
2017-01-27T03:09:43.899Z,1012.74
2017-01-27T03:10:10.034Z,1012.74
2017-01-27T03:10:36.161Z,1012.71
2017-01-27T03:11:02.299Z,1012.75
2017-01-27T03:11:28.456Z,1012.79
2017-01-27T03:11:54.602Z,1012.75
2017-01-27T03:12:20.769Z,1012.79
2017-01-27T03:12:46.908Z,1012.78
2017-01-27T03:13:13.040Z,1012.76
2017-01-27T03:13:39.212Z,1012.71
2017-01-27T03:14:05.401Z,1012.74
2017-01-27T03:14:31.534Z,1012.69
2017-01-27T03:14:57.663Z,1012.7
2017-01-27T03:15:23.789Z,1012.7
2017-01-27T03:15:49.963Z,1012.75
2017-01-27T03:16:16.134Z,1012.8
2017-01-27T03:16:42.278Z,1012.8
2017-01-27T03:17:08.445Z,1012.77
2017-01-27T03:17:34.629Z,1012.81
2017-01-27T03:18:00.742Z,1012.8
2017-01-27T03:18:26.907Z,1012.77
2017-01-27T03:18:53.085Z,1012.73
2017-01-27T03:19:19.189Z,1012.73
2017-01-27T03:19:45.362Z,1012.72
2017-01-27T03:20:11.485Z,1012.69
2017-01-27T03:20:37.654Z,1012.68
2017-01-27T03:21:03.822Z,1012.68
2017-01-27T03:21:29.992Z,1012.65
2017-01-27T03:21:56.215Z,1012.61
2017-01-27T03:22:22.392Z,1012.58
2017-01-27T03:22:48.531Z,1012.6
2017-01-27T03:23:14.695Z,1012.6
2017-01-27T03:23:40.854Z,1012.59
2017-01-27T03:24:07.075Z,1012.58
2017-01-27T03:24:33.230Z,1012.59
2017-01-27T03:24:59.371Z,1012.58
2017-01-27T03:25:25.530Z,1012.56
2017-01-27T03:25:51.710Z,1012.57
2017-01-27T03:26:17.844Z,1012.55
2017-01-27T03:26:44.070Z,1012.54
2017-01-27T03:27:10.227Z,1012.56
2017-01-27T03:27:36.337Z,1012.48
2017-01-27T03:28:02.487Z,1012.46
2017-01-27T03:28:28.623Z,1012.47
2017-01-27T03:28:54.800Z,1012.45
2017-01-27T03:29:20.954Z,1012.47
2017-01-27T03:29:47.155Z,1012.48
2017-01-27T03:30:13.254Z,1012.46
2017-01-27T03:30:40.801Z,1012.47
2017-01-27T03:31:06.932Z,1012.48
2017-01-27T03:31:33.057Z,1012.51
2017-01-27T03:31:59.193Z,1012.48
2017-01-27T03:32:25.357Z,1012.5
2017-01-27T03:32:51.474Z,1012.47
2017-01-27T03:33:17.565Z,1012.47
2017-01-27T03:33:43.796Z,1012.44
2017-01-27T03:34:09.979Z,1012.45
2017-01-27T03:34:36.122Z,1012.47
2017-01-27T03:35:02.267Z,1012.44
2017-01-27T03:35:28.381Z,1012.42
2017-01-27T03:35:54.560Z,1012.43
2017-01-27T03:36:20.676Z,1012.4
2017-01-27T03:36:46.797Z,1012.42
2017-01-27T03:37:12.948Z,1012.41
2017-01-27T03:37:39.080Z,1012.4
2017-01-27T03:38:05.169Z,1012.39
2017-01-27T03:38:31.295Z,1012.37
2017-01-27T03:38:57.432Z,1012.4
2017-01-27T03:39:23.552Z,1012.39
2017-01-27T03:39:49.680Z,1012.4
2017-01-27T03:40:15.839Z,1012.36
2017-01-27T03:40:41.953Z,1012.35
2017-01-27T03:41:08.112Z,1012.35
2017-01-27T03:41:34.253Z,1012.33
2017-01-27T03:42:00.461Z,1012.31
2017-01-27T03:42:26.593Z,1012.35
2017-01-27T03:42:52.757Z,1012.36
2017-01-27T03:43:18.883Z,1012.37
2017-01-27T03:43:45.073Z,1012.41
2017-01-27T03:44:11.244Z,1012.39
2017-01-27T03:44:37.369Z,1012.42
2017-01-27T03:45:03.564Z,1012.4
2017-01-27T03:45:29.734Z,1012.4
2017-01-27T03:45:55.849Z,1012.4
2017-01-27T03:46:21.973Z,1012.46
2017-01-27T03:46:48.094Z,1012.44
2017-01-27T03:47:14.234Z,1012.46
2017-01-27T03:47:40.375Z,1012.46
2017-01-27T03:48:06.531Z,1012.48
2017-01-27T03:48:32.711Z,1012.44
2017-01-27T03:48:58.827Z,1012.46
2017-01-27T03:49:24.968Z,1012.48
2017-01-27T03:49:51.162Z,1012.48
2017-01-27T03:50:17.317Z,1012.51
2017-01-27T03:50:43.483Z,1012.51
2017-01-27T03:51:09.583Z,1012.54
2017-01-27T03:51:35.710Z,1012.56
2017-01-27T03:52:01.875Z,1012.57
2017-01-27T03:52:28.008Z,1012.61
2017-01-27T03:52:54.175Z,1012.56
2017-01-27T03:53:20.308Z,1012.65
2017-01-27T03:53:46.428Z,1012.63
2017-01-27T03:54:12.530Z,1012.58
2017-01-27T03:54:38.651Z,1012.55
2017-01-27T03:55:04.797Z,1012.58
2017-01-27T03:55:30.962Z,1012.55
2017-01-27T03:55:57.078Z,1012.6
2017-01-27T03:56:23.225Z,1012.57
2017-01-27T03:56:49.413Z,1012.58
2017-01-27T03:57:15.543Z,1012.57
2017-01-27T03:57:41.679Z,1012.61
2017-01-27T03:58:07.848Z,1012.62
2017-01-27T03:58:33.970Z,1012.66
2017-01-27T03:59:00.073Z,1012.63
2017-01-27T03:59:26.192Z,1012.63
2017-01-27T03:59:52.337Z,1012.62
2017-01-27T04:00:18.502Z,1012.6
2017-01-27T04:00:44.629Z,1012.52
2017-01-27T04:01:10.793Z,1012.53
2017-01-27T04:01:36.947Z,1012.51
2017-01-27T04:02:03.075Z,1012.53
2017-01-27T04:02:29.240Z,1012.56
2017-01-27T04:02:55.380Z,1012.63
2017-01-27T04:03:21.510Z,1012.65
2017-01-27T04:03:47.652Z,1012.68
2017-01-27T04:04:13.753Z,1012.65
2017-01-27T04:04:39.863Z,1012.64
2017-01-27T04:05:06.026Z,1012.65
2017-01-27T04:05:32.152Z,1012.62
2017-01-27T04:05:58.300Z,1012.64
2017-01-27T04:06:24.457Z,1012.64
2017-01-27T04:06:50.681Z,1012.6
2017-01-27T04:07:16.838Z,1012.61
2017-01-27T04:07:42.992Z,1012.63
2017-01-27T04:08:09.127Z,1012.67
2017-01-27T04:08:35.264Z,1012.69
2017-01-27T04:09:01.371Z,1012.74
2017-01-27T04:09:27.505Z,1012.7
2017-01-27T04:09:53.665Z,1012.73
2017-01-27T04:10:19.798Z,1012.73
2017-01-27T04:10:45.913Z,1012.7
2017-01-27T04:11:12.071Z,1012.64
2017-01-27T04:11:38.208Z,1012.62
2017-01-27T04:12:04.347Z,1012.69
2017-01-27T04:12:30.462Z,1012.69
2017-01-27T04:12:56.632Z,1012.7
2017-01-27T04:13:22.715Z,1012.71
2017-01-27T04:13:48.859Z,1012.72
2017-01-27T04:14:15.026Z,1012.69
2017-01-27T04:14:41.162Z,1012.7
2017-01-27T04:15:07.287Z,1012.73
2017-01-27T04:15:33.426Z,1012.68
2017-01-27T04:15:59.549Z,1012.67
2017-01-27T04:16:25.665Z,1012.7
2017-01-27T04:16:51.823Z,1012.72
2017-01-27T04:17:17.984Z,1012.75
2017-01-27T04:17:44.102Z,1012.7
2017-01-27T04:18:10.246Z,1012.7
2017-01-27T04:18:36.411Z,1012.68
2017-01-27T04:19:02.504Z,1012.71
2017-01-27T04:19:28.658Z,1012.69
2017-01-27T04:19:54.835Z,1012.72
2017-01-27T04:20:20.933Z,1012.75
2017-01-27T04:20:47.069Z,1012.76
2017-01-27T04:21:13.176Z,1012.75
2017-01-27T04:21:39.326Z,1012.76
2017-01-27T04:22:05.512Z,1012.79
2017-01-27T04:22:31.631Z,1012.76
2017-01-27T04:22:57.799Z,1012.74
2017-01-27T04:23:23.901Z,1012.76
2017-01-27T04:23:50.072Z,1012.73
2017-01-27T04:24:16.220Z,1012.71
2017-01-27T04:24:42.358Z,1012.7
2017-01-27T04:25:08.449Z,1012.72
2017-01-27T04:25:34.554Z,1012.72
2017-01-27T04:26:00.692Z,1012.78
2017-01-27T04:26:26.807Z,1012.73
2017-01-27T04:26:52.966Z,1012.73
2017-01-27T04:27:19.114Z,1012.72
2017-01-27T04:27:45.236Z,1012.71
2017-01-27T04:28:11.427Z,1012.71
2017-01-27T04:28:37.580Z,1012.69
2017-01-27T04:29:03.776Z,1012.7
2017-01-27T04:29:29.903Z,1012.69
2017-01-27T04:29:56.052Z,1012.68
2017-01-27T04:30:22.198Z,1012.66
2017-01-27T04:30:48.298Z,1012.62
2017-01-27T04:31:14.428Z,1012.6
2017-01-27T04:31:40.571Z,1012.64
2017-01-27T04:32:06.718Z,1012.59
2017-01-27T04:32:32.859Z,1012.61
2017-01-27T04:32:59.008Z,1012.58
2017-01-27T04:33:25.131Z,1012.58
2017-01-27T04:33:51.249Z,1012.6
2017-01-27T04:34:17.402Z,1012.57
2017-01-27T04:34:43.531Z,1012.59
2017-01-27T04:35:09.687Z,1012.59
2017-01-27T04:35:35.845Z,1012.62
2017-01-27T04:36:01.967Z,1012.65
2017-01-27T04:36:28.088Z,1012.6
2017-01-27T04:36:54.203Z,1012.63
2017-01-27T04:37:20.342Z,1012.63
2017-01-27T04:37:46.458Z,1012.66
2017-01-27T04:38:12.600Z,1012.68
2017-01-27T04:38:38.735Z,1012.68
2017-01-27T04:39:04.854Z,1012.71
2017-01-27T04:39:31.024Z,1012.74
2017-01-27T04:39:57.164Z,1012.69
2017-01-27T04:40:23.354Z,1012.7
2017-01-27T04:40:49.507Z,1012.69
2017-01-27T04:41:15.639Z,1012.71
2017-01-27T04:41:41.798Z,1012.68
2017-01-27T04:42:07.920Z,1012.7
2017-01-27T04:42:34.100Z,1012.73
2017-01-27T04:43:00.287Z,1012.75
2017-01-27T04:43:26.483Z,1012.75
2017-01-27T04:43:52.632Z,1012.72
2017-01-27T04:44:18.748Z,1012.7
2017-01-27T04:44:44.935Z,1012.72
2017-01-27T04:45:11.126Z,1012.73
2017-01-27T04:45:37.232Z,1012.74
2017-01-27T04:46:03.413Z,1012.74
2017-01-27T04:46:29.577Z,1012.74
2017-01-27T04:46:55.721Z,1012.78
2017-01-27T04:47:21.863Z,1012.76
2017-01-27T04:47:48.009Z,1012.8
2017-01-27T04:48:14.140Z,1012.75
2017-01-27T04:48:40.282Z,1012.75
2017-01-27T04:49:06.392Z,1012.74
2017-01-27T04:49:32.542Z,1012.72
2017-01-27T04:49:58.695Z,1012.7
2017-01-27T04:50:24.814Z,1012.68
2017-01-27T04:50:51.005Z,1012.68
2017-01-27T04:51:17.189Z,1012.67
2017-01-27T04:51:43.335Z,1012.67
2017-01-27T04:52:09.447Z,1012.64
2017-01-27T04:52:35.611Z,1012.66
2017-01-27T04:53:01.795Z,1012.67
2017-01-27T04:53:28.014Z,1012.69
2017-01-27T04:53:54.146Z,1012.69
2017-01-27T04:54:20.295Z,1012.68
2017-01-27T04:54:46.395Z,1012.72
2017-01-27T04:55:12.497Z,1012.74
2017-01-27T04:55:38.660Z,1012.71
2017-01-27T04:56:04.717Z,1012.73
2017-01-27T04:56:30.868Z,1012.71
2017-01-27T04:56:57.025Z,1012.74
2017-01-27T04:57:23.167Z,1012.74
2017-01-27T04:57:49.267Z,1012.76
2017-01-27T04:58:15.385Z,1012.76
2017-01-27T04:58:41.519Z,1012.72
2017-01-27T04:59:07.634Z,1012.76
2017-01-27T04:59:33.830Z,1012.73
2017-01-27T04:59:59.947Z,1012.72
2017-01-27T05:00:26.060Z,1012.75
2017-01-27T05:00:52.252Z,1012.74
2017-01-27T05:01:18.380Z,1012.74
2017-01-27T05:01:44.463Z,1012.73
2017-01-27T05:02:10.594Z,1012.71
2017-01-27T05:02:36.724Z,1012.67
2017-01-27T05:03:02.921Z,1012.69
2017-01-27T05:03:29.038Z,1012.71
2017-01-27T05:03:55.210Z,1012.73
2017-01-27T05:04:21.330Z,1012.73
2017-01-27T05:04:47.481Z,1012.76
2017-01-27T05:05:13.616Z,1012.79
2017-01-27T05:05:39.765Z,1012.71
2017-01-27T05:06:05.964Z,1012.75
2017-01-27T05:06:32.069Z,1012.69
2017-01-27T05:06:58.170Z,1012.66
2017-01-27T05:07:24.275Z,1012.68
2017-01-27T05:07:50.390Z,1012.68
2017-01-27T05:08:16.487Z,1012.67
2017-01-27T05:08:42.643Z,1012.65
2017-01-27T05:09:08.819Z,1012.65
2017-01-27T05:09:34.905Z,1012.57
2017-01-27T05:10:01.097Z,1012.61
2017-01-27T05:10:27.224Z,1012.59
2017-01-27T05:10:53.390Z,1012.59
2017-01-27T05:11:19.495Z,1012.6
2017-01-27T05:11:45.644Z,1012.58
2017-01-27T05:12:11.815Z,1012.58
2017-01-27T05:12:37.934Z,1012.58
2017-01-27T05:13:04.050Z,1012.54
2017-01-27T05:13:30.208Z,1012.57
2017-01-27T05:13:56.361Z,1012.53
2017-01-27T05:14:22.472Z,1012.59
2017-01-27T05:14:48.603Z,1012.54
2017-01-27T05:15:14.730Z,1012.61
2017-01-27T05:15:40.827Z,1012.55
2017-01-27T05:16:07.001Z,1012.57
2017-01-27T05:16:33.110Z,1012.55
2017-01-27T05:16:59.274Z,1012.5
2017-01-27T05:17:25.422Z,1012.56
2017-01-27T05:17:51.529Z,1012.5
2017-01-27T05:18:17.718Z,1012.52
2017-01-27T05:18:43.815Z,1012.54